<?xml version="1.0" encoding="UTF-8" standalone="no" ?>
<gpx xmlns="http://www.topografix.com/GPX/1/1" xmlns:xsi="http://www.w3.org/2001/XMLSchema-instance" xsi:schemaLocation="http://www.topografix.com/GPX/1/1 http://www.topografix.com/GPX/1/1/gpx.xsd" version="1.1" creator="VisuGPX - https://www.visugpx.com">
  <metadata>
    <name>Turquie_100points</name>
  </metadata>
  <trk>
    <name><![CDATA[fet-edi]]></name>
    <extensions>
      <line xmlns="http://www.topografix.com/GPX/gpx_style/0/2">
        <color>880088</color>
        <width>4</width>
      </line>
    </extensions>
    <trkseg>
      <trkpt lat="36.62532" lon="29.20954">
        <ele>115.461826</ele>
        <time>2022-02-24T08:00:00.256Z</time>
      </trkpt>
      <trkpt lat="36.64243" lon="29.1752">
        <ele>44.592056</ele>
        <time>2022-02-24T08:14:43.792Z</time>
      </trkpt>
      <trkpt lat="36.68755" lon="29.10202">
        <ele>9.883536</ele>
        <time>2022-02-24T08:55:08.173Z</time>
      </trkpt>
      <trkpt lat="36.73619" lon="29.02304">
        <ele>100.675439</ele>
        <time>2022-02-24T09:51:44.907Z</time>
      </trkpt>
      <trkpt lat="36.75834" lon="28.93437">
        <ele>10.037803</ele>
        <time>2022-02-24T10:45:42.648Z</time>
      </trkpt>
      <trkpt lat="36.82869" lon="28.78449">
        <ele>20.568906</ele>
        <time>2022-02-24T12:10:55.614Z</time>
      </trkpt>
      <trkpt lat="36.94019" lon="28.73996">
        <ele>19.781917</ele>
        <time>2022-02-24T13:19:15.502Z</time>
      </trkpt>
      <trkpt lat="36.99345" lon="28.57894">
        <ele>65.395619</ele>
        <time>2022-02-24T14:39:05.657Z</time>
      </trkpt>
      <trkpt lat="37.07496" lon="28.5026">
        <ele>431.413477</ele>
        <time>2022-02-24T16:11:09.338Z</time>
      </trkpt>
      <trkpt lat="37.1086" lon="28.41402">
        <ele>610.525707</ele>
        <time>2022-02-24T17:22:27.252Z</time>
      </trkpt>
      <trkpt lat="37.22105" lon="28.34406">
        <ele>665.368896</ele>
        <time>2022-02-24T18:42:04.042Z</time>
      </trkpt>
      <trkpt lat="37.27383" lon="28.20787">
        <ele>411.423711</ele>
        <time>2022-02-24T19:37:09.099Z</time>
      </trkpt>
      <trkpt lat="37.40245" lon="28.15616">
        <ele>432.920298</ele>
        <time>2022-02-24T20:53:39.814Z</time>
      </trkpt>
      <trkpt lat="37.49814" lon="28.11633">
        <ele>306.715477</ele>
        <time>2022-02-24T21:53:45.958Z</time>
      </trkpt>
      <trkpt lat="37.57229" lon="28.05758">
        <ele>69.492777</ele>
        <time>2022-02-24T22:42:07.718Z</time>
      </trkpt>
      <trkpt lat="37.6853" lon="28.00805">
        <ele>66.06357</ele>
        <time>2022-02-24T23:42:09.886Z</time>
      </trkpt>
      <trkpt lat="37.76865" lon="27.83483">
        <ele>30.123823</ele>
        <time>2022-02-25T01:05:19.442Z</time>
      </trkpt>
      <trkpt lat="37.83984" lon="27.77142">
        <ele>36.566567</ele>
        <time>2022-02-25T01:59:38.983Z</time>
      </trkpt>
      <trkpt lat="37.87327" lon="27.59702">
        <ele>63.704379</ele>
        <time>2022-02-25T03:11:19.243Z</time>
      </trkpt>
      <trkpt lat="37.92805" lon="27.51672">
        <ele>168.792444</ele>
        <time>2022-02-25T04:08:41.827Z</time>
      </trkpt>
      <trkpt lat="37.99078" lon="27.50236">
        <ele>169.892407</ele>
        <time>2022-02-25T05:07:37.108Z</time>
      </trkpt>
      <trkpt lat="38.09592" lon="27.39388">
        <ele>11.79623</ele>
        <time>2022-02-25T06:15:40.220Z</time>
      </trkpt>
      <trkpt lat="38.21395" lon="27.33104">
        <ele>65.671215</ele>
        <time>2022-02-25T07:20:23.334Z</time>
      </trkpt>
      <trkpt lat="38.29189" lon="27.18817">
        <ele>146.031614</ele>
        <time>2022-02-25T08:36:16.226Z</time>
      </trkpt>
      <trkpt lat="38.33422" lon="27.13751">
        <ele>120.152294</ele>
        <time>2022-02-25T09:07:56.768Z</time>
      </trkpt>
      <trkpt lat="38.37925" lon="27.13566">
        <ele>60.957035</ele>
        <time>2022-02-25T09:28:48.403Z</time>
      </trkpt>
      <trkpt lat="38.41642" lon="27.14521">
        <ele>113.093289</ele>
        <time>2022-02-25T09:59:42.752Z</time>
      </trkpt>
      <trkpt lat="38.46497" lon="27.12985">
        <ele>1.687553</ele>
        <time>2022-02-25T10:41:26.238Z</time>
      </trkpt>
      <trkpt lat="38.47067" lon="27.0653">
        <ele>-1.153458</ele>
        <time>2022-02-25T11:14:58.814Z</time>
      </trkpt>
      <trkpt lat="38.58308" lon="26.94353">
        <ele>3.643736</ele>
        <time>2022-02-25T12:57:07.452Z</time>
      </trkpt>
      <trkpt lat="38.65559" lon="26.90314">
        <ele>20.411869</ele>
        <time>2022-02-25T13:51:41.819Z</time>
      </trkpt>
      <trkpt lat="38.74666" lon="26.91093">
        <ele>43.15576</ele>
        <time>2022-02-25T14:44:55.926Z</time>
      </trkpt>
      <trkpt lat="38.79624" lon="26.96443">
        <ele>15.651276</ele>
        <time>2022-02-25T15:30:02.088Z</time>
      </trkpt>
      <trkpt lat="38.8546" lon="27.03913">
        <ele>14.354632</ele>
        <time>2022-02-25T16:14:03.660Z</time>
      </trkpt>
      <trkpt lat="38.91055" lon="27.05366">
        <ele>19.996602</ele>
        <time>2022-02-25T16:53:39.188Z</time>
      </trkpt>
      <trkpt lat="38.968" lon="27.07739">
        <ele>162.076324</ele>
        <time>2022-02-25T17:46:53.035Z</time>
      </trkpt>
      <trkpt lat="39.03578" lon="27.11645">
        <ele>155.141707</ele>
        <time>2022-02-25T18:41:28.584Z</time>
      </trkpt>
      <trkpt lat="39.07647" lon="27.19561">
        <ele>56.412975</ele>
        <time>2022-02-25T19:34:01.377Z</time>
      </trkpt>
      <trkpt lat="39.08736" lon="27.30392">
        <ele>49.493037</ele>
        <time>2022-02-25T20:24:17.350Z</time>
      </trkpt>
      <trkpt lat="39.11581" lon="27.4318">
        <ele>58.261456</ele>
        <time>2022-02-25T21:20:52.810Z</time>
      </trkpt>
      <trkpt lat="39.21911" lon="27.56468">
        <ele>178.877799</ele>
        <time>2022-02-25T22:46:05.520Z</time>
      </trkpt>
      <trkpt lat="39.37922" lon="27.6464">
        <ele>257.202709</ele>
        <time>2022-02-26T00:25:09.258Z</time>
      </trkpt>
      <trkpt lat="39.47735" lon="27.65427">
        <ele>472.08764</ele>
        <time>2022-02-26T01:47:40.604Z</time>
      </trkpt>
      <trkpt lat="39.55189" lon="27.69255">
        <ele>338.553336</ele>
        <time>2022-02-26T02:56:15.309Z</time>
      </trkpt>
      <trkpt lat="39.62338" lon="27.70859">
        <ele>376.45489</ele>
        <time>2022-02-26T03:57:12.084Z</time>
      </trkpt>
      <trkpt lat="39.65643" lon="27.85064">
        <ele>179.395921</ele>
        <time>2022-02-26T04:57:48.417Z</time>
      </trkpt>
      <trkpt lat="39.68351" lon="27.90747">
        <ele>163.245392</ele>
        <time>2022-02-26T05:27:59.010Z</time>
      </trkpt>
      <trkpt lat="39.75404" lon="28.00116">
        <ele>248.823663</ele>
        <time>2022-02-26T06:37:28.481Z</time>
      </trkpt>
      <trkpt lat="39.86804" lon="28.11616">
        <ele>203.578893</ele>
        <time>2022-02-26T08:01:05.608Z</time>
      </trkpt>
      <trkpt lat="39.9477" lon="28.19014">
        <ele>46.357581</ele>
        <time>2022-02-26T08:50:02.037Z</time>
      </trkpt>
      <trkpt lat="40.05458" lon="28.23428">
        <ele>24.399192</ele>
        <time>2022-02-26T09:55:23.157Z</time>
      </trkpt>
      <trkpt lat="40.16457" lon="28.35536">
        <ele>8.124271</ele>
        <time>2022-02-26T11:17:06.110Z</time>
      </trkpt>
      <trkpt lat="40.2435" lon="28.41381">
        <ele>15.314947</ele>
        <time>2022-02-26T12:09:11.525Z</time>
      </trkpt>
      <trkpt lat="40.26311" lon="28.50344">
        <ele>150.112198</ele>
        <time>2022-02-26T13:05:08.208Z</time>
      </trkpt>
      <trkpt lat="40.28443" lon="28.60607">
        <ele>154.025419</ele>
        <time>2022-02-26T14:05:54.682Z</time>
      </trkpt>
      <trkpt lat="40.2627" lon="28.70471">
        <ele>109.25271</ele>
        <time>2022-02-26T15:02:13.778Z</time>
      </trkpt>
      <trkpt lat="40.31601" lon="28.77974">
        <ele>263.816693</ele>
        <time>2022-02-26T16:03:53.196Z</time>
      </trkpt>
      <trkpt lat="40.33387" lon="28.84729">
        <ele>346.151093</ele>
        <time>2022-02-26T16:50:32.034Z</time>
      </trkpt>
      <trkpt lat="40.35484" lon="28.93377">
        <ele>57.940774</ele>
        <time>2022-02-26T17:23:56.315Z</time>
      </trkpt>
      <trkpt lat="40.36002" lon="29.01217">
        <ele>35.025442</ele>
        <time>2022-02-26T18:05:41.469Z</time>
      </trkpt>
      <trkpt lat="40.3896" lon="29.10825">
        <ele>18.582286</ele>
        <time>2022-02-26T18:49:00.801Z</time>
      </trkpt>
      <trkpt lat="40.42374" lon="29.19141">
        <ele>42.122984</ele>
        <time>2022-02-26T19:38:56.725Z</time>
      </trkpt>
      <trkpt lat="40.49631" lon="29.31344">
        <ele>110.758508</ele>
        <time>2022-02-26T20:49:31.439Z</time>
      </trkpt>
      <trkpt lat="40.56284" lon="29.32714">
        <ele>451.533566</ele>
        <time>2022-02-26T21:52:58.937Z</time>
      </trkpt>
      <trkpt lat="40.61092" lon="29.30261">
        <ele>174.195888</ele>
        <time>2022-02-26T22:27:50.873Z</time>
      </trkpt>
      <trkpt lat="40.66736" lon="29.34651">
        <ele>32.86183</ele>
        <time>2022-02-26T23:06:35.372Z</time>
      </trkpt>
      <trkpt lat="40.76933" lon="29.42724">
        <ele>3.580724</ele>
        <time>2022-02-27T00:10:41.969Z</time>
      </trkpt>
      <trkpt lat="40.81372" lon="29.43078">
        <ele>166.363561</ele>
        <time>2022-02-27T00:55:40.344Z</time>
      </trkpt>
      <trkpt lat="40.8932" lon="29.41542">
        <ele>245.268995</ele>
        <time>2022-02-27T01:46:03.268Z</time>
      </trkpt>
      <trkpt lat="40.88081" lon="29.34509">
        <ele>97.482155</ele>
        <time>2022-02-27T02:15:41.136Z</time>
      </trkpt>
      <trkpt lat="40.86933" lon="29.2871">
        <ele>31.608758</ele>
        <time>2022-02-27T02:40:48.095Z</time>
      </trkpt>
      <trkpt lat="40.87365" lon="29.25187">
        <ele>12.689807</ele>
        <time>2022-02-27T02:56:58.716Z</time>
      </trkpt>
      <trkpt lat="40.89359" lon="29.16982">
        <ele>-0.307228</ele>
        <time>2022-02-27T03:31:11.817Z</time>
      </trkpt>
      <trkpt lat="40.94815" lon="29.09992">
        <ele>0.931278</ele>
        <time>2022-02-27T04:09:06.402Z</time>
      </trkpt>
      <trkpt lat="40.97077" lon="29.04398">
        <ele>13.26668</ele>
        <time>2022-02-27T04:35:19.065Z</time>
      </trkpt>
      <trkpt lat="41.01618" lon="28.97765">
        <ele>6.580258</ele>
        <time>2022-02-27T05:14:55.854Z</time>
      </trkpt>
      <trkpt lat="41.00684" lon="28.9343">
        <ele>46.453668</ele>
        <time>2022-02-27T05:41:54.825Z</time>
      </trkpt>
      <trkpt lat="40.99547" lon="28.88487">
        <ele>24.591195</ele>
        <time>2022-02-27T06:06:33.565Z</time>
      </trkpt>
      <trkpt lat="40.99437" lon="28.81684">
        <ele>10.352067</ele>
        <time>2022-02-27T06:35:54.802Z</time>
      </trkpt>
      <trkpt lat="40.98017" lon="28.73792">
        <ele>47.788025</ele>
        <time>2022-02-27T07:16:01.227Z</time>
      </trkpt>
      <trkpt lat="41.00987" lon="28.65676">
        <ele>146.169138</ele>
        <time>2022-02-27T08:05:33.628Z</time>
      </trkpt>
      <trkpt lat="41.02149" lon="28.57631">
        <ele>3.117982</ele>
        <time>2022-02-27T08:35:58.566Z</time>
      </trkpt>
      <trkpt lat="41.02062" lon="28.48139">
        <ele>51.587649</ele>
        <time>2022-02-27T09:20:04.031Z</time>
      </trkpt>
      <trkpt lat="41.04405" lon="28.41381">
        <ele>6.683687</ele>
        <time>2022-02-27T09:47:56.336Z</time>
      </trkpt>
      <trkpt lat="41.067" lon="28.30485">
        <ele>24.5867</ele>
        <time>2022-02-27T10:33:27.876Z</time>
      </trkpt>
      <trkpt lat="41.07794" lon="28.21735">
        <ele>32.142554</ele>
        <time>2022-02-27T11:13:03.005Z</time>
      </trkpt>
      <trkpt lat="41.07509" lon="28.13328">
        <ele>41.70081</ele>
        <time>2022-02-27T11:50:38.689Z</time>
      </trkpt>
      <trkpt lat="41.09759" lon="27.99594">
        <ele>40.943742</ele>
        <time>2022-02-27T12:53:08.062Z</time>
      </trkpt>
      <trkpt lat="41.14664" lon="27.84892">
        <ele>158.954034</ele>
        <time>2022-02-27T14:08:15.712Z</time>
      </trkpt>
      <trkpt lat="41.1779" lon="27.77568">
        <ele>116.859387</ele>
        <time>2022-02-27T14:39:25.804Z</time>
      </trkpt>
      <trkpt lat="41.25918" lon="27.66617">
        <ele>121.674003</ele>
        <time>2022-02-27T15:44:27.520Z</time>
      </trkpt>
      <trkpt lat="41.30793" lon="27.53631">
        <ele>65.373857</ele>
        <time>2022-02-27T16:35:54.110Z</time>
      </trkpt>
      <trkpt lat="41.39557" lon="27.3949">
        <ele>75.489857</ele>
        <time>2022-02-27T17:53:59.373Z</time>
      </trkpt>
      <trkpt lat="41.42927" lon="27.31962">
        <ele>95.605111</ele>
        <time>2022-02-27T18:34:01.127Z</time>
      </trkpt>
      <trkpt lat="41.45643" lon="27.20749">
        <ele>86.910316</ele>
        <time>2022-02-27T19:36:15.922Z</time>
      </trkpt>
      <trkpt lat="41.43531" lon="27.08161">
        <ele>69.232092</ele>
        <time>2022-02-27T20:28:16.661Z</time>
      </trkpt>
      <trkpt lat="41.5043" lon="26.90042">
        <ele>59.606593</ele>
        <time>2022-02-27T21:45:17.177Z</time>
      </trkpt>
      <trkpt lat="41.58512" lon="26.71121">
        <ele>102.633411</ele>
        <time>2022-02-27T23:11:28.774Z</time>
      </trkpt>
      <trkpt lat="41.66013" lon="26.58523">
        <ele>42.290467</ele>
        <time>2022-02-28T00:09:10.139Z</time>
      </trkpt>
      <trkpt lat="41.67606" lon="26.55887">
        <ele>73.899811</ele>
        <time>2022-02-28T00:25:07.614Z</time>
      </trkpt>
    </trkseg>
  </trk>
</gpx>